Union, WV (24983)

1:04 PM EST on February 13, 2016 (GMT -0500)
kc8ysl kc8zec Organ Cave | | Change Station
CLOSE
Current Station
Personal Weather Station
Location: Organ Cave, WV
Elevation: 2310 ft
Nearby Weather Stations
Active Advisory: Wind Chill Advisory Active Notice: Public Information Statement

Elev 2310 ft 37.71 °N, 80.42 °W | Updated 1 second ago

Overcast
Overcast
9.5 °F
Feels Like 1 °F
N
5.0
Wind Variable Wind from NNE
Gusts 17.0 mph

Today
High -- | Low -- °F
--% Chance of Precip.
Yesterday
High -- | Low -- °F
Precip. -- in
Pressure 30.24 in
Visibility 7.0 miles
Clouds Scattered Clouds 2000 ft
Mostly Cloudy 3500 ft
Overcast 4200 ft
Windchill 1 °F
Dew Point 0 °F
Humidity 65%
Rainfall 0.00 in
Snow Depth Not available.
7:14 AM 5:58 PM
Waxing Crescent, 32% visible
METAR KLWB 131755Z AUTO 30007G19KT 270V330 7SM SCT020 BKN035 OVC042 M09/M18 A3024 RMK AO2 T10891179 11085 21111
Pressure 30.24 in
Visibility 7.0 miles
Clouds Scattered Clouds 2000 ft
Mostly Cloudy 3500 ft
Overcast 4200 ft
Windchill 1 °F
Dew Point 0 °F
Humidity 65%
Rainfall 0.00 in
Snow Depth Not available.
7:14 AM 5:58 PM
Waxing Crescent, 32% visible
METAR KLWB 131755Z AUTO 30007G19KT 270V330 7SM SCT020 BKN035 OVC042 M09/M18 A3024 RMK AO2 T10891179 11085 21111

10-Day Weather Forecast

Almanac

Astronomy

Feb. 13, 2016 Rise Set
Actual Time
Civil Twilight
Nautical Twilight
Astronomical Twilight
Moon
Length of Visible Light
Length of Day
Tomorrow will be .
, % of the Moon is Illuminated

Today's Extremes

State Highs State Lows

Community

WunderPhotos

Upload Photos

1,892,631 photos uploaded!

WunderBlog® & News

Nearby

Air Quality

  Air Quality AQ Index Pollutant
Not available.

Snow Depth

Station Depth Elevation

Earthquake Activity

City Distance Mag. Time & Date
Minimum magnitude displayed is 2.5.

Coastal Water Temperatures

Place Temperature

Stations

Nearby Weather Stations

Station Location Temp. Windchill Dew Point Humidity Wind Precip. Elev Updated Type
                   

Watches & Warnings

Wind Chill Advisory
Issued: 7:06 AM EST Feb. 13, 2016 – National Weather Service

... Wind Chill Advisory remains in effect until 10 am EST Sunday...

* locations... areas of Virginia... West Virginia... and North
Carolina from the Blue Ridge westward.

* Hazard types... strong gusty winds... and very low wind chills.

* Wind chill readings... as low as 10 below.

* Timing... through Sunday morning.

* Impacts... very low wind chill values will lead to hypothermia
and frostbite if not properly protected from the cold.

* Winds... northwest 10 to 20 mph with gusts up to 40 mph.

* Temperatures... 4 to 22 above.

Precautionary/preparedness actions...

A Wind Chill Advisory means that very cold air and strong winds
will combine to generate low wind chills. This will result in
frost bite and lead to hypothermia if precautions are not taken.
If you must venture outdoors... make sure you wear a hat and
gloves.



Rab